Time;durP1;ratioP1;P1;durP2;ratioP2;P2;SDS_P1;SDS_P2;PMS_P1;PMS_P2;Temp;Humidity;BMP_temperature;BMP_pressure;BME280_temperature;BME280_humidity;BME280_pressure;Samples;Min_cycle;Max_cycle;Signal;HPM_P1;HPM_P2
2023/01/01 00:00:54;;;;;;;;;;;;;;;-144.47;100.00;61586.06;4913259;28;19915;-78
2023/01/01 00:03:20;;;;;;;;;;;;;;;-144.47;100.00;61586.06;4914409;28;20341;-77
2023/01/01 00:05:46;;;;;;;;;;;;;;;-144.47;100.00;61586.06;4914138;28;19915;-77
2023/01/01 00:08:11;;;;;;;;;;;;;;;-144.47;100.00;61586.06;4910258;28;19926;-77
2023/01/01 00:10:37;;;;;;;;;;;;;;;-144.47;100.00;61586.06;4913598;29;20406;-77
2023/01/01 00:13:02;;;;;;;;;;;;;;;-144.47;100.00;61586.06;4914718;28;20025;-78
2023/01/01 00:15:27;;;;;;;;;;;;;;;-144.47;100.00;61586.06;4915349;29;19919;-75
2023/01/01 00:17:53;;;;;;;;;;;;;;;-144.47;100.00;61586.06;4914259;28;20068;-75
2023/01/01 00:20:18;;;;;;;;;;;;;;;-144.47;100.00;61586.06;4914204;28;19926;-75
2023/01/01 00:22:44;;;;;;;;;;;;;;;-144.47;100.00;61586.06;4912104;29;20417;-75
2023/01/01 00:25:12;;;;;;;;;;;;;;;-144.47;100.00;61586.06;4913118;29;19915;-75
2023/01/01 00:27:38;;;;;;;;;;;;;;;-144.47;100.00;61586.06;4913055;28;19981;-75
2023/01/01 00:30:03;;;;;;;;;;;;;;;-144.47;100.00;61586.06;4913036;29;20417;-75
2023/01/01 00:32:29;;;;;;;;;;;;;;;-144.47;100.00;61586.06;4913741;29;19922;-75
2023/01/01 00:34:54;;;;;;;;;;;;;;;-144.47;100.00;61586.06;4913762;28;20001;-74
2023/01/01 00:37:19;;;;;;;;;;;;;;;-144.47;100.00;61586.06;4913456;29;19922;-75
2023/01/01 00:39:45;;;;;;;;;;;;;;;-144.47;100.00;61586.06;4913529;29;20010;-75
2023/01/01 00:42:10;;;;;;;;;;;;;;;-144.47;100.00;61586.06;4912991;29;20005;-76
2023/01/01 00:44:35;;;;;;;;;;;;;;;-144.47;100.00;61586.06;4913564;29;20394;-76
2023/01/01 00:47:01;;;;;;;;;;;;;;;-144.47;100.00;61586.06;4913591;28;19923;-75
2023/01/01 00:49:26;;;;;;;;;;;;;;;-144.47;100.00;61586.06;4913207;28;19930;-75
2023/01/01 00:51:52;;;;;;;;;;;;;;;-144.47;100.00;61586.06;4913387;28;19919;-76
2023/01/01 00:54:17;;;;;;;;;;;;;;;-144.47;100.00;61586.06;4913053;29;19961;-76
2023/01/01 00:56:43;;;;;;;;;;;;;;;-144.47;100.00;61586.06;4915419;29;19923;-75
2023/01/01 00:59:08;;;;;;;;;;;;;;;-144.47;100.00;61586.06;4916704;29;20314;-76
2023/01/01 01:01:33;;;;;;;;;;;;;;;-144.47;100.00;61586.06;4912021;28;19923;-74
2023/01/01 01:03:59;;;;;;;;;;;;;;;-144.47;100.00;61586.06;4913378;28;19966;-74
2023/01/01 01:06:24;;;;;;;;;;;;;;;-144.47;100.00;61586.06;4911964;29;19926;-75
2023/01/01 01:08:50;;;;;;;;;;;;;;;-144.47;100.00;61586.06;4911714;28;19926;-75
2023/01/01 01:11:17;;;;;;;;;;;;;;;-144.47;100.00;61586.06;4913010;29;20295;-76
2023/01/01 01:13:44;;;;;;;;;;;;;;;-144.47;100.00;61586.06;4912928;28;19994;-76
2023/01/01 01:16:11;;;;;;;;;;;;;;;-144.47;100.00;61586.06;4913022;29;20403;-76
2023/01/01 01:18:36;;;;;;;;;;;;;;;-144.47;100.00;61586.06;4913173;28;19927;-75
2023/01/01 01:21:02;;;;;;;;;;;;;;;-144.47;100.00;61586.06;4913083;29;19919;-76
2023/01/01 01:23:27;;;;;;;;;;;;;;;-144.47;100.00;61586.06;4913649;29;19925;-76
2023/01/01 01:25:53;;;;;;;;;;;;;;;-144.47;100.00;61586.06;4913735;29;20460;-77
2023/01/01 01:28:18;;;;;;;;;;;;;;;-144.47;100.00;61586.06;4912735;29;19919;-77
2023/01/01 01:30:43;;;;;;;;;;;;;;;-144.47;100.00;61586.06;4913253;29;19923;-78
2023/01/01 01:33:09;;;;;;;;;;;;;;;-144.47;100.00;61586.06;4912994;28;19923;-78
2023/01/01 01:35:34;;;;;;;;;;;;;;;-144.47;100.00;61586.06;4911273;29;19934;-78
2023/01/01 01:38:00;;;;;;;;;;;;;;;-144.47;100.00;61586.06;4913270;28;19926;-78
2023/01/01 01:40:25;;;;;;;;;;;;;;;-144.47;100.00;61586.06;4913194;28;19965;-78
2023/01/01 01:42:51;;;;;;;;;;;;;;;-144.47;100.00;61586.06;4913398;28;20009;-78
2023/01/01 01:45:17;;;;;;;;;;;;;;;-144.47;100.00;61586.06;4912677;28;20449;-78
2023/01/01 01:47:56;;;;;;;;;;;;;;;-144.47;100.00;61586.06;4908096;28;19926;-78
2023/01/01 01:50:26;;;;;;;;;;;;;;;-144.47;100.00;61586.06;4915067;28;20344;-78
2023/01/01 01:53:11;;;;;;;;;;;;;;;-144.47;100.00;61586.06;4912905;28;20427;-78
2023/01/01 01:55:39;;;;;;;;;;;;;;;-144.47;100.00;61586.06;4913469;28;20011;-78
2023/01/01 01:58:06;;;;;;;;;;;;;;;-144.47;100.00;61586.06;4911967;29;19927;-78
2023/01/01 02:00:31;;;;;;;;;;;;;;;-144.47;100.00;61586.06;4911123;28;20315;-78
2023/01/01 02:03:01;;;;;;;;;;;;;;;-144.47;100.00;61586.06;4910796;28;20080;-76
2023/01/01 02:05:29;;;;;;;;;;;;;;;-144.47;100.00;61586.06;4911368;28;19923;-77
2023/01/01 02:07:55;;;;;;;;;;;;;;;-144.47;100.00;61586.06;4913024;28;19959;-76
2023/01/01 02:10:20;;;;;;;;;;;;;;;-144.47;100.00;61586.06;4913010;28;20334;-76
2023/01/01 02:12:46;;;;;;;;;;;;;;;-144.47;100.00;61586.06;4912459;29;19941;-75
2023/01/01 02:15:11;;;;;;;;;;;;;;;-144.47;100.00;61586.06;4911482;28;19919;-74
2023/01/01 02:17:51;;;;;;;;;;;;;;;-144.47;100.00;61586.06;4913001;29;19915;-75
2023/01/01 02:20:16;;;;;;;;;;;;;;;-144.47;100.00;61586.06;4910148;29;19919;-75
2023/01/01 02:23:08;;;;;;;;;;;;;;;-144.47;100.00;61586.06;4916419;29;19915;-76
2023/01/01 02:25:51;;;;;;;;;;;;;;;-144.47;100.00;61586.06;4915319;28;20018;-75
2023/01/01 02:28:23;;;;;;;;;;;;;;;-144.47;100.00;61586.06;4912121;28;19966;-75
2023/01/01 02:30:49;;;;;;;;;;;;;;;-144.47;100.00;61586.06;4916152;28;19989;-75
2023/01/01 02:33:18;;;;;;;;;;;;;;;-144.47;100.00;61586.06;4914697;29;19926;-76
2023/01/01 02:35:58;;;;;;;;;;;;;;;-144.47;100.00;61586.06;4915748;29;20006;-76
2023/01/01 02:38:29;;;;;;;;;;;;;;;-144.47;100.00;61586.06;4911497;28;20002;-76
2023/01/01 02:40:58;;;;;;;;;;;;;;;-144.47;100.00;61586.06;4915667;28;19923;-76
2023/01/01 02:43:23;;;;;;;;;;;;;;;-144.47;100.00;61586.06;4913752;29;19958;-76
2023/01/01 02:45:49;;;;;;;;;;;;;;;-144.47;100.00;61586.06;4915717;28;19962;-77
2023/01/01 02:48:32;;;;;;;;;;;;;;;-144.47;100.00;61586.06;4918657;29;19919;-77
2023/01/01 02:51:03;;;;;;;;;;;;;;;-144.47;100.00;61586.06;4924632;28;20337;-76
2023/01/01 02:53:31;;;;;;;;;;;;;;;-144.47;100.00;61586.06;4915328;28;19915;-76
2023/01/01 02:55:56;;;;;;;;;;;;;;;-144.47;100.00;61586.06;4914073;28;19955;-76
2023/01/01 03:01:26;;;;;;;;;;;;;;;-144.47;100.00;61586.06;4912169;28;20532;-77
2023/01/01 03:03:58;;;;;;;;;;;;;;;-144.47;100.00;61586.06;4915280;29;19929;-77
2023/01/01 03:06:33;;;;;;;;;;;;;;;-144.47;100.00;61586.06;4913174;28;19923;-78
2023/01/01 03:09:10;;;;;;;;;;;;;;;-144.47;100.00;61586.06;4913970;28;20326;-77
2023/01/01 03:11:40;;;;;;;;;;;;;;;-144.47;100.00;61586.06;4913224;28;20013;-78
2023/01/01 03:14:08;;;;;;;;;;;;;;;-144.47;100.00;61586.06;4914349;29;19919;-77
2023/01/01 03:16:36;;;;;;;;;;;;;;;-144.47;100.00;61586.06;4914651;28;19965;-77
2023/01/01 03:19:10;;;;;;;;;;;;;;;-144.47;100.00;61586.06;4913520;28;19941;-77
2023/01/01 03:21:56;;;;;;;;;;;;;;;-144.47;100.00;61586.06;4914952;29;20290;-75
2023/01/01 03:24:37;;;;;;;;;;;;;;;-144.47;100.00;61586.06;4912025;28;20322;-75
2023/01/01 03:27:29;;;;;;;;;;;;;;;-144.47;100.00;61586.06;4914574;29;19925;-77
2023/01/01 03:29:56;;;;;;;;;;;;;;;-144.47;100.00;61586.06;4953152;28;20373;-78
2023/01/01 03:32:58;;;;;;;;;;;;;;;-144.47;100.00;61586.06;4912784;28;20371;-77
2023/01/01 03:35:12;;;;;;;;;;;;;;;-144.47;100.00;61586.06;4914201;29;19922;-77
2023/01/01 03:37:38;;;;;;;;;;;;;;;-144.47;100.00;61586.06;4914605;29;19942;-76
2023/01/01 03:40:06;;;;;;;;;;;;;;;-144.47;100.00;61586.06;4914207;29;20322;-77
2023/01/01 03:42:32;;;;;;;;;;;;;;;-144.47;100.00;61586.06;4914509;28;19919;-76
2023/01/01 03:45:00;;;;;;;;;;;;;;;-144.47;100.00;61586.06;4914440;29;19919;-75
2023/01/01 03:47:26;;;;;;;;;;;;;;;-144.47;100.00;61586.06;4913928;29;20371;-75
2023/01/01 03:49:52;;;;;;;;;;;;;;;-144.47;100.00;61586.06;4914247;29;19926;-75
2023/01/01 03:52:35;;;;;;;;;;;;;;;-144.47;100.00;61586.06;4914073;29;20339;-75
2023/01/01 03:55:05;;;;;;;;;;;;;;;-144.47;100.00;61586.06;4914530;28;20344;-78
2023/01/01 03:57:38;;;;;;;;;;;;;;;-144.47;100.00;61586.06;4914501;29;19915;-76
2023/01/01 04:00:15;;;;;;;;;;;;;;;-144.47;100.00;61586.06;4914195;29;19923;-76
2023/01/01 04:02:44;;;;;;;;;;;;;;;-144.47;100.00;61586.06;4914233;28;20383;-77
2023/01/01 04:05:10;;;;;;;;;;;;;;;-144.47;100.00;61586.06;4914050;29;19973;-77
2023/01/01 04:07:36;;;;;;;;;;;;;;;-144.47;100.00;61586.06;4913109;29;19941;-78
2023/01/01 04:10:15;;;;;;;;;;;;;;;-144.47;100.00;61586.06;4914294;28;20359;-76
2023/01/01 04:12:47;;;;;;;;;;;;;;;-144.47;100.00;61586.06;4914142;29;19945;-76
2023/01/01 04:15:13;;;;;;;;;;;;;;;-144.47;100.00;61586.06;4929906;28;20216;-76
2023/01/01 04:17:38;;;;;;;;;;;;;;;-144.47;100.00;61586.06;4914311;28;19926;-76
2023/01/01 04:20:04;;;;;;;;;;;;;;;-144.47;100.00;61586.06;4913644;29;19923;-76
2023/01/01 04:22:29;;;;;;;;;;;;;;;-144.47;100.00;61586.06;4913881;28;19926;-76
2023/01/01 04:24:55;;;;;;;;;;;;;;;-144.47;100.00;61586.06;4913974;28;19919;-75
2023/01/01 04:27:20;;;;;;;;;;;;;;;-144.47;100.00;61586.06;4913497;29;19967;-75
2023/01/01 04:29:45;;;;;;;;;;;;;;;-144.47;100.00;61586.06;4913922;29;19919;-75
2023/01/01 04:32:10;;;;;;;;;;;;;;;-144.47;100.00;61586.06;4913241;28;19957;-75
2023/01/01 04:34:36;;;;;;;;;;;;;;;-144.47;100.00;61586.06;4913753;29;20009;-76
2023/01/01 04:37:01;;;;;;;;;;;;;;;-144.47;100.00;61586.06;4913686;29;19919;-76
2023/01/01 04:39:26;;;;;;;;;;;;;;;-144.47;100.00;61586.06;4913867;29;19923;-77
2023/01/01 04:41:52;;;;;;;;;;;;;;;-144.47;100.00;61586.06;4913829;29;19919;-76
2023/01/01 04:44:17;;;;;;;;;;;;;;;-144.47;100.00;61586.06;4912187;28;19922;-76
2023/01/01 04:46:43;;;;;;;;;;;;;;;-144.47;100.00;61586.06;4912351;29;19919;-76
2023/01/01 04:49:08;;;;;;;;;;;;;;;-144.47;100.00;61586.06;4912038;29;20338;-75
2023/01/01 04:51:33;;;;;;;;;;;;;;;-144.47;100.00;61586.06;4913521;29;20390;-76
2023/01/01 04:54:01;;;;;;;;;;;;;;;-144.47;100.00;61586.06;4912510;28;19941;-75
2023/01/01 04:56:26;;;;;;;;;;;;;;;-144.47;100.00;61586.06;4907328;28;19919;-75
2023/01/01 04:58:52;;;;;;;;;;;;;;;-144.47;100.00;61586.06;4913274;29;20318;-75
2023/01/01 05:01:21;;;;;;;;;;;;;;;-144.47;100.00;61586.06;4913146;28;19922;-76
2023/01/01 05:03:46;;;;;;;;;;;;;;;-144.47;100.00;61586.06;4913193;28;20009;-77
2023/01/01 05:06:12;;;;;;;;;;;;;;;-144.47;100.00;61586.06;4912900;29;20022;-76
2023/01/01 05:08:38;;;;;;;;;;;;;;;-144.47;100.00;61586.06;4913495;29;19927;-75
2023/01/01 05:11:13;;;;;;;;;;;;;;;-144.47;100.00;61586.06;4913316;29;19923;-75
2023/01/01 05:13:40;;;;;;;;;;;;;;;-144.47;100.00;61586.06;4910974;28;19919;-75
2023/01/01 05:16:07;;;;;;;;;;;;;;;-144.47;100.00;61586.06;4917093;28;19917;-76
2023/01/01 05:18:33;;;;;;;;;;;;;;;-144.47;100.00;61586.06;4913282;29;20053;-76
2023/01/01 05:20:59;;;;;;;;;;;;;;;-144.47;100.00;61586.06;4913457;29;20009;-76
2023/01/01 05:23:25;;;;;;;;;;;;;;;-144.47;100.00;61586.06;4913119;29;20034;-76
2023/01/01 05:25:50;;;;;;;;;;;;;;;-144.47;100.00;61586.06;4912107;28;20386;-76
2023/01/01 05:28:16;;;;;;;;;;;;;;;-144.47;100.00;61586.06;4912637;29;19964;-75
2023/01/01 05:30:41;;;;;;;;;;;;;;;-144.47;100.00;61586.06;4913205;28;19923;-76
2023/01/01 05:33:06;;;;;;;;;;;;;;;-144.47;100.00;61586.06;4912929;29;19923;-75
2023/01/01 05:35:31;;;;;;;;;;;;;;;-144.47;100.00;61586.06;4913033;29;20006;-76
2023/01/01 05:37:57;;;;;;;;;;;;;;;-144.47;100.00;61586.06;4913149;28;19919;-75
2023/01/01 05:40:22;;;;;;;;;;;;;;;-144.47;100.00;61586.06;4912704;29;19976;-76
2023/01/01 05:42:48;;;;;;;;;;;;;;;-144.47;100.00;61586.06;4912625;28;19926;-74
2023/01/01 05:45:13;;;;;;;;;;;;;;;-144.47;100.00;61586.06;4912767;28;19923;-75
2023/01/01 05:47:38;;;;;;;;;;;;;;;-144.47;100.00;61586.06;4912868;29;19919;-75
2023/01/01 05:50:04;;;;;;;;;;;;;;;-144.47;100.00;61586.06;4912743;28;19927;-74
2023/01/01 05:52:29;;;;;;;;;;;;;;;-144.47;100.00;61586.06;4912785;29;20375;-76
2023/01/01 05:54:54;;;;;;;;;;;;;;;-144.47;100.00;61586.06;4913660;28;19919;-76
2023/01/01 05:57:20;;;;;;;;;;;;;;;-144.47;100.00;61586.06;4915699;29;19969;-74
2023/01/01 05:59:45;;;;;;;;;;;;;;;-144.47;100.00;61586.06;4916387;29;19962;-76
2023/01/01 06:02:10;;;;;;;;;;;;;;;-144.47;100.00;61586.06;4912093;28;19923;-76
2023/01/01 06:04:36;;;;;;;;;;;;;;;-144.47;100.00;61586.06;4915904;28;19918;-76
2023/01/01 06:07:01;;;;;;;;;;;;;;;-144.47;100.00;61586.06;4915904;28;20350;-77
2023/01/01 06:09:27;;;;;;;;;;;;;;;-144.47;100.00;61586.06;4917457;28;19977;-77
2023/01/01 06:11:52;;;;;;;;;;;;;;;-144.47;100.00;61586.06;4915977;28;19942;-77
2023/01/01 06:14:18;;;;;;;;;;;;;;;-144.47;100.00;61586.06;4916500;28;19919;-76
2023/01/01 06:16:44;;;;;;;;;;;;;;;-144.47;100.00;61586.06;4915665;29;19934;-76
2023/01/01 06:19:09;;;;;;;;;;;;;;;-144.47;100.00;61586.06;4915349;28;19919;-75
2023/01/01 06:21:34;;;;;;;;;;;;;;;-144.47;100.00;61586.06;4915757;28;19926;-76
2023/01/01 06:24:00;;;;;;;;;;;;;;;-144.47;100.00;61586.06;4915955;28;19926;-77
2023/01/01 06:26:27;;;;;;;;;;;;;;;-144.47;100.00;61586.06;4915897;28;20287;-77
2023/01/01 06:28:53;;;;;;;;;;;;;;;-144.47;100.00;61586.06;4914106;28;19919;-77
2023/01/01 06:31:20;;;;;;;;;;;;;;;-144.47;100.00;61586.06;4915427;29;20013;-77
2023/01/01 06:33:45;;;;;;;;;;;;;;;-144.47;100.00;61586.06;4915761;29;19915;-77
2023/01/01 06:36:12;;;;;;;;;;;;;;;-144.47;100.00;61586.06;4915139;29;20025;-76
2023/01/01 06:38:39;;;;;;;;;;;;;;;-144.47;100.00;61586.06;4915521;29;20010;-76
2023/01/01 06:41:05;;;;;;;;;;;;;;;-144.47;100.00;61586.06;4915302;29;19930;-78
2023/01/01 06:43:32;;;;;;;;;;;;;;;-144.47;100.00;61586.06;4915653;28;19919;-78
2023/01/01 06:46:00;;;;;;;;;;;;;;;-144.47;100.00;61586.06;4915856;29;19922;-77
2023/01/01 06:48:26;;;;;;;;;;;;;;;-144.47;100.00;61586.06;4915570;29;19923;-75
2023/01/01 06:50:52;;;;;;;;;;;;;;;-144.47;100.00;61586.06;4915562;29;19919;-76
2023/01/01 06:53:17;;;;;;;;;;;;;;;-144.47;100.00;61586.06;4913877;29;19965;-76
2023/01/01 06:55:49;;;;;;;;;;;;;;;-144.47;100.00;61586.06;4911394;29;19947;-75
2023/01/01 06:58:14;;;;;;;;;;;;;;;-144.47;100.00;61586.06;4928988;28;20283;-75
2023/01/01 07:00:39;;;;;;;;;;;;;;;-144.47;100.00;61586.06;4915228;29;19965;-76
2023/01/01 07:03:06;;;;;;;;;;;;;;;-144.47;100.00;61586.06;4919524;29;19966;-78
2023/01/01 07:05:32;;;;;;;;;;;;;;;-144.47;100.00;61586.06;4909773;28;20264;-76
2023/01/01 07:07:58;;;;;;;;;;;;;;;-144.47;100.00;61586.06;4913183;28;19934;-73
2023/01/01 07:10:23;;;;;;;;;;;;;;;-144.47;100.00;61586.06;4914291;29;19923;-74
2023/01/01 07:12:48;;;;;;;;;;;;;;;-144.47;100.00;61586.06;4914852;28;19966;-76
2023/01/01 07:15:14;;;;;;;;;;;;;;;-144.47;100.00;61586.06;4985415;23;20377;-75
2023/01/01 07:17:39;;;;;;;;;;;;;;;-144.47;100.00;61586.06;5025893;28;19917;-79
2023/01/01 07:20:05;;;;;;;;;;;;;;;-144.47;100.00;61586.06;5023784;28;19913;-80
2023/01/01 07:22:30;;;;;;;;;;;;;;;-144.47;100.00;61586.06;5022979;28;19917;-80
2023/01/01 07:24:56;;;;;;;;;;;;;;;-144.47;100.00;61586.06;5024338;28;19917;-82
2023/01/01 07:27:21;;;;;;;;;;;;;;;-144.47;100.00;61586.06;5025882;28;20014;-82
2023/01/01 07:29:46;;;;;;;;;;;;;;;-144.47;100.00;61586.06;5022841;28;19924;-82
2023/01/01 07:32:12;;;;;;;;;;;;;;;-144.47;100.00;61586.06;5027306;28;19917;-83
2023/01/01 07:34:38;;;;;;;;;;;;;;;-144.47;100.00;61586.06;5023681;28;20389;-81
2023/01/01 07:37:03;;;;;;;;;;;;;;;-144.47;100.00;61586.06;5025787;28;19918;-80
2023/01/01 07:39:29;;;;;;;;;;;;;;;-144.47;100.00;61586.06;5030603;28;19917;-81
2023/01/01 07:41:54;;;;;;;;;;;;;;;-144.47;100.00;61586.06;5030995;28;19932;-79
2023/01/01 07:44:19;;;;;;;;;;;;;;;-144.47;100.00;61586.06;5032586;28;19921;-81
2023/01/01 07:46:45;;;;;;;;;;;;;;;-144.47;100.00;61586.06;5031158;28;19924;-80
2023/01/01 07:49:11;;;;;;;;;;;;;;;-144.47;100.00;61586.06;5032341;28;19917;-80
2023/01/01 07:51:36;;;;;;;;;;;;;;;-144.47;100.00;61586.06;5033895;28;19916;-80
2023/01/01 07:54:01;;;;;;;;;;;;;;;-144.47;100.00;61586.06;5033638;28;19971;-81
2023/01/01 07:56:27;;;;;;;;;;;;;;;-144.47;100.00;61586.06;5029755;28;19927;-80
2023/01/01 07:58:52;;;;;;;;;;;;;;;-144.47;100.00;61586.06;5026127;28;20000;-79
2023/01/01 08:01:18;;;;;;;;;;;;;;;-144.47;100.00;61586.06;5027732;28;19918;-81
2023/01/01 08:03:43;;;;;;;;;;;;;;;-144.47;100.00;61586.06;5032776;28;19924;-79
2023/01/01 08:06:10;;;;;;;;;;;;;;;-144.47;100.00;61586.06;5027867;28;19924;-80
2023/01/01 08:08:35;;;;;;;;;;;;;;;-144.47;100.00;61586.06;5032590;28;19920;-79
2023/01/01 08:11:01;;;;;;;;;;;;;;;-144.47;100.00;61586.06;5027358;28;19924;-78
2023/01/01 08:13:29;;;;;;;;;;;;;;;-144.47;100.00;61586.06;5027093;28;20261;-80
2023/01/01 08:15:56;;;;;;;;;;;;;;;-144.47;100.00;61586.06;5031410;28;19968;-82
2023/01/01 08:18:22;;;;;;;;;;;;;;;-144.47;100.00;61586.06;5033899;28;20313;-81
2023/01/01 08:20:47;;;;;;;;;;;;;;;-144.47;100.00;61586.06;5031189;28;19952;-81
2023/01/01 08:23:12;;;;;;;;;;;;;;;-144.47;100.00;61586.06;5024067;28;19924;-78
2023/01/01 08:25:38;;;;;;;;;;;;;;;-144.47;100.00;61586.06;5026198;28;19916;-78
2023/01/01 08:28:03;;;;;;;;;;;;;;;-144.47;100.00;61586.06;5023187;28;19965;-79
2023/01/01 08:30:29;;;;;;;;;;;;;;;-144.47;100.00;61586.06;5023334;28;19948;-77
2023/01/01 08:32:54;;;;;;;;;;;;;;;-144.47;100.00;61586.06;5023970;28;19927;-78
2023/01/01 08:35:20;;;;;;;;;;;;;;;-144.47;100.00;61586.06;5021553;28;19921;-78
2023/01/01 08:37:45;;;;;;;;;;;;;;;-144.47;100.00;61586.06;5024435;28;19917;-79
2023/01/01 08:40:12;;;;;;;;;;;;;;;-144.47;100.00;61586.06;5021540;28;19917;-79
2023/01/01 08:42:37;;;;;;;;;;;;;;;-144.47;100.00;61586.06;5023410;28;20280;-80
2023/01/01 08:45:03;;;;;;;;;;;;;;;-144.47;100.00;61586.06;5017844;28;20231;-81
2023/01/01 08:47:28;;;;;;;;;;;;;;;-144.47;100.00;61586.06;5018173;28;19924;-78
2023/01/01 08:49:55;;;;;;;;;;;;;;;-144.47;100.00;61586.06;5021398;28;19925;-78
2023/01/01 08:52:21;;;;;;;;;;;;;;;-144.47;100.00;61586.06;5022074;28;20372;-79
2023/01/01 08:54:46;;;;;;;;;;;;;;;-144.47;100.00;61586.06;5018529;28;19970;-77
2023/01/01 08:57:12;;;;;;;;;;;;;;;-144.47;100.00;61586.06;5025264;28;19952;-74
2023/01/01 08:59:37;;;;;;;;;;;;;;;-144.47;100.00;61586.06;5024048;28;19932;-77
2023/01/01 09:02:03;;;;;;;;;;;;;;;-144.47;100.00;61586.06;5022636;28;19924;-77
2023/01/01 09:04:29;;;;;;;;;;;;;;;-144.47;100.00;61586.06;5023702;28;19917;-78
2023/01/01 09:06:54;;;;;;;;;;;;;;;-144.47;100.00;61586.06;5021429;28;19921;-76
2023/01/01 09:09:20;;;;;;;;;;;;;;;-144.47;100.00;61586.06;5023062;28;19921;-79
2023/01/01 09:11:49;;;;;;;;;;;;;;;-144.47;100.00;61586.06;5028078;28;19917;-77
2023/01/01 09:14:14;;;;;;;;;;;;;;;-144.47;100.00;61586.06;5018966;28;20718;-76
2023/01/01 09:16:40;;;;;;;;;;;;;;;-144.47;100.00;61586.06;5028561;28;19925;-76
2023/01/01 09:19:05;;;;;;;;;;;;;;;-144.47;100.00;61586.06;5027538;28;19917;-75
2023/01/01 09:21:31;;;;;;;;;;;;;;;-144.47;100.00;61586.06;5026597;28;19917;-76
2023/01/01 09:23:57;;;;;;;;;;;;;;;-144.47;100.00;61586.06;5015068;28;19925;-73
2023/01/01 09:26:22;;;;;;;;;;;;;;;-144.47;100.00;61586.06;5021111;28;19932;-75
2023/01/01 09:28:48;;;;;;;;;;;;;;;-144.47;100.00;61586.06;5021973;28;19929;-76
2023/01/01 09:31:14;;;;;;;;;;;;;;;-144.47;100.00;61586.06;5023419;28;19932;-76
2023/01/01 09:33:39;;;;;;;;;;;;;;;-144.47;100.00;61586.06;5027545;28;20321;-76
2023/01/01 09:36:12;;;;;;;;;;;;;;;-144.47;100.00;61586.06;5029000;28;19976;-75
2023/01/01 09:38:37;;;;;;;;;;;;;;;-144.47;100.00;61586.06;5030341;28;20024;-76
2023/01/01 09:41:10;;;;;;;;;;;;;;;-144.47;100.00;61586.06;5031136;28;19952;-75
2023/01/01 09:43:38;;;;;;;;;;;;;;;-144.47;100.00;61586.06;5026755;28;20325;-77
2023/01/01 09:46:07;;;;;;;;;;;;;;;-144.47;100.00;61586.06;5030191;28;19920;-75
2023/01/01 09:48:35;;;;;;;;;;;;;;;-144.47;100.00;61586.06;5029304;28;19924;-77
2023/01/01 09:51:02;;;;;;;;;;;;;;;-144.47;100.00;61586.06;5029681;28;19917;-76
2023/01/01 09:53:36;;;;;;;;;;;;;;;-144.47;100.00;61586.06;5028738;28;19925;-76
2023/01/01 09:56:03;;;;;;;;;;;;;;;-144.47;100.00;61586.06;5026484;28;19924;-77
2023/01/01 09:58:33;;;;;;;;;;;;;;;-144.47;100.00;61586.06;5028673;28;19928;-78
2023/01/01 10:01:18;;;;;;;;;;;;;;;-144.47;100.00;61586.06;5025523;28;19928;-77
2023/01/01 10:03:52;;;;;;;;;;;;;;;-144.47;100.00;61586.06;5015669;28;20016;-76
2023/01/01 10:06:24;;;;;;;;;;;;;;;-144.47;100.00;61586.06;5023754;28;20365;-75
2023/01/01 10:09:07;;;;;;;;;;;;;;;-144.47;100.00;61586.06;5026667;28;20399;-74
2023/01/01 10:11:38;;;;;;;;;;;;;;;-144.47;100.00;61586.06;5024747;28;20978;-75
2023/01/01 10:14:11;;;;;;;;;;;;;;;-144.47;100.00;61586.06;5024300;28;19917;-77
2023/01/01 10:16:43;;;;;;;;;;;;;;;-144.47;100.00;61586.06;5022714;28;19999;-76
2023/01/01 10:19:25;;;;;;;;;;;;;;;-144.47;100.00;61586.06;5027285;28;19929;-77
2023/01/01 10:21:54;;;;;;;;;;;;;;;-144.47;100.00;61586.06;5019622;28;19928;-76
2023/01/01 10:24:36;;;;;;;;;;;;;;;-144.47;100.00;61586.06;5026092;28;19923;-76
2023/01/01 10:27:05;;;;;;;;;;;;;;;-144.47;100.00;61586.06;5022550;28;19917;-76
2023/01/01 10:29:36;;;;;;;;;;;;;;;-144.47;100.00;61586.06;5024978;28;19917;-76
2023/01/01 10:32:14;;;;;;;;;;;;;;;-144.47;100.00;61586.06;5023871;28;19921;-75
2023/01/01 10:34:39;;;;;;;;;;;;;;;-144.47;100.00;61586.06;5023645;28;19921;-77
2023/01/01 10:37:04;;;;;;;;;;;;;;;-144.47;100.00;61586.06;5023164;28;19962;-75
2023/01/01 10:39:30;;;;;;;;;;;;;;;-144.47;100.00;61586.06;5024170;28;19964;-75
2023/01/01 10:41:57;;;;;;;;;;;;;;;-144.47;100.00;61586.06;5025276;28;19920;-75
2023/01/01 10:44:28;;;;;;;;;;;;;;;-144.47;100.00;61586.06;5021709;28;19928;-75
2023/01/01 10:46:55;;;;;;;;;;;;;;;-144.47;100.00;61586.06;5023449;28;20289;-77
2023/01/01 10:49:21;;;;;;;;;;;;;;;-144.47;100.00;61586.06;5022061;28;19955;-74
2023/01/01 10:51:48;;;;;;;;;;;;;;;-144.47;100.00;61586.06;5022164;28;19980;-76
2023/01/01 10:54:32;;;;;;;;;;;;;;;-144.47;100.00;61586.06;5018179;28;19913;-78
2023/01/01 10:56:58;;;;;;;;;;;;;;;-144.47;100.00;61586.06;5023454;28;20328;-76
2023/01/01 10:59:42;;;;;;;;;;;;;;;-144.47;100.00;61586.06;5021786;28;19917;-77
2023/01/01 11:02:16;;;;;;;;;;;;;;;-144.47;100.00;61586.06;5020702;28;20015;-76
2023/01/01 11:04:42;;;;;;;;;;;;;;;-144.47;100.00;61586.06;5025787;28;19913;-77
2023/01/01 11:07:07;;;;;;;;;;;;;;;-144.47;100.00;61586.06;5020736;28;19926;-76
2023/01/01 11:09:37;;;;;;;;;;;;;;;-144.47;100.00;61586.06;5022853;28;19917;-77
2023/01/01 11:12:07;;;;;;;;;;;;;;;-144.47;100.00;61586.06;5024523;28;19924;-78
2023/01/01 11:14:36;;;;;;;;;;;;;;;-144.47;100.00;61586.06;5023574;28;19925;-78
2023/01/01 11:17:01;;;;;;;;;;;;;;;-144.47;100.00;61586.06;5024297;28;19924;-80
2023/01/01 11:19:37;;;;;;;;;;;;;;;-144.47;100.00;61586.06;5024512;28;19936;-79
2023/01/01 11:22:03;;;;;;;;;;;;;;;-144.47;100.00;61586.06;5024377;28;20332;-79
2023/01/01 11:24:29;;;;;;;;;;;;;;;-144.47;100.00;61586.06;5024318;28;19917;-78
2023/01/01 11:27:30;;;;;;;;;;;;;;;-144.47;100.00;61586.06;5023001;28;20040;-79
2023/01/01 11:30:14;;;;;;;;;;;;;;;-144.47;100.00;61586.06;4979676;28;20398;-77
2023/01/01 11:32:39;;;;;;;;;;;;;;;-144.47;100.00;61586.06;4981567;28;19925;-78
2023/01/01 11:35:06;;;;;;;;;;;;;;;-144.47;100.00;61586.06;4982363;28;19918;-79
2023/01/01 11:37:34;;;;;;;;;;;;;;;-144.47;100.00;61586.06;4982632;28;20025;-78
2023/01/01 11:40:01;;;;;;;;;;;;;;;-144.47;100.00;61586.06;4982275;28;19969;-74
2023/01/01 11:42:28;;;;;;;;;;;;;;;-144.47;100.00;61586.06;4981353;28;20322;-78
2023/01/01 11:44:59;;;;;;;;;;;;;;;-144.47;100.00;61586.06;4966909;28;19967;-78
2023/01/01 11:47:34;;;;;;;;;;;;;;;-144.47;100.00;61586.06;4964568;28;19922;-76
2023/01/01 11:50:15;;;;;;;;;;;;;;;-144.47;100.00;61586.06;4949900;28;19918;-79
2023/01/01 11:52:40;;;;;;;;;;;;;;;-144.47;100.00;61586.06;4982830;28;20317;-79
2023/01/01 11:55:12;;;;;;;;;;;;;;;-144.47;100.00;61586.06;4981664;28;19924;-78
2023/01/01 11:57:41;;;;;;;;;;;;;;;-144.47;100.00;61586.06;4983433;28;19918;-78
2023/01/01 12:00:13;;;;;;;;;;;;;;;-144.47;100.00;61586.06;4981502;28;19929;-79
2023/01/01 12:02:49;;;;;;;;;;;;;;;-144.47;100.00;61586.06;4984153;28;19918;-79
2023/01/01 12:05:18;;;;;;;;;;;;;;;-144.47;100.00;61586.06;5019853;28;20281;-79
2023/01/01 12:07:44;;;;;;;;;;;;;;;-144.47;100.00;61586.06;5027433;28;19916;-75
2023/01/01 12:10:17;;;;;;;;;;;;;;;-144.47;100.00;61586.06;5024070;28;20026;-78
2023/01/01 12:13:05;;;;;;;;;;;;;;;-144.47;100.00;61586.06;5026279;28;19916;-78
2023/01/01 12:15:42;;;;;;;;;;;;;;;-144.47;100.00;61586.06;5018122;28;19923;-77
2023/01/01 12:18:21;;;;;;;;;;;;;;;-144.47;100.00;61586.06;5027598;28;19917;-78
2023/01/01 12:20:52;;;;;;;;;;;;;;;-144.47;100.00;61586.06;5028230;28;19921;-78
2023/01/01 12:23:18;;;;;;;;;;;;;;;-144.47;100.00;61586.06;5020522;28;19964;-78
2023/01/01 12:25:45;;;;;;;;;;;;;;;-144.47;100.00;61586.06;5027354;28;20288;-78